Time,TemperatureF,DewpointF,PressureIn,WindDirection,WindDirectionDegrees,WindSpeedMPH,WindSpeedGustMPH,Humidity,HourlyPrecipIn,Conditions,Clouds,dailyrainin,SoftwareType,DateUTC
2013-05-31 00:02:00,76.0,69.0,29.94,SSE,159,2.0,12.0,79,0.00,,,0.00,,2013-05-31 04:02:00,
2013-05-31 00:12:00,76.0,69.0,29.94,SSE,159,2.0,12.0,79,0.00,,,0.00,,2013-05-31 04:12:00,
2013-05-31 00:22:00,76.0,69.0,29.94,SSE,159,2.0,7.0,79,0.00,,,0.00,,2013-05-31 04:22:00,
2013-05-31 00:32:00,76.0,69.0,29.95,SSE,156,2.0,10.0,79,0.00,,,0.00,,2013-05-31 04:32:00,
2013-05-31 00:42:00,76.0,69.0,29.95,SSE,156,2.0,10.0,79,0.00,,,0.00,,2013-05-31 04:42:00,
2013-05-31 00:53:00,75.0,68.0,29.95,SSE,151,2.0,7.0,79,0.00,,,0.00,,2013-05-31 04:53:00,
2013-05-31 01:02:00,75.0,68.0,29.95,SSE,156,3.0,13.0,79,0.00,,,0.00,,2013-05-31 05:02:00,
2013-05-31 01:12:00,75.0,68.0,29.95,SSE,164,1.0,7.0,79,0.00,,,0.00,,2013-05-31 05:12:00,
2013-05-31 01:22:00,75.0,68.0,29.95,SSE,164,1.0,7.0,79,0.00,,,0.00,,2013-05-31 05:22:00,
2013-05-31 01:31:00,75.0,68.0,29.94,SSE,155,2.0,7.0,79,0.00,,,0.00,,2013-05-31 05:31:00,
2013-05-31 01:42:00,75.0,68.0,29.94,SSE,155,2.0,7.0,79,0.00,,,0.00,,2013-05-31 05:42:00,
2013-05-31 01:52:00,75.0,68.0,29.94,SSE,160,2.0,8.0,80,0.00,,,0.00,,2013-05-31 05:52:00,
2013-05-31 02:02:00,75.0,68.0,29.94,SSE,157,3.0,8.0,80,0.00,,,0.00,,2013-05-31 06:02:00,
2013-05-31 02:12:00,75.0,68.0,29.94,SSE,157,3.0,8.0,80,0.00,,,0.00,,2013-05-31 06:12:00,
2013-05-31 02:21:00,74.0,67.0,29.94,SSE,155,1.0,7.0,80,0.00,,,0.00,,2013-05-31 06:21:00,
2013-05-31 02:31:00,74.0,68.0,29.94,SSE,151,2.0,7.0,81,0.00,,,0.00,,2013-05-31 06:31:00,
2013-05-31 02:41:00,74.0,68.0,29.93,SSE,157,2.0,8.0,81,0.00,,,0.00,,2013-05-31 06:41:00,
2013-05-31 02:52:00,74.0,68.0,29.93,SSE,157,2.0,8.0,81,0.00,,,0.00,,2013-05-31 06:52:00,
2013-05-31 03:02:00,74.0,68.0,29.92,SSE,156,3.0,8.0,81,0.00,,,0.00,,2013-05-31 07:02:00,
2013-05-31 03:11:00,74.0,68.0,29.92,SE,146,2.0,10.0,81,0.00,,,0.00,,2013-05-31 07:11:00,
2013-05-31 03:21:00,74.0,68.0,29.92,SE,146,2.0,10.0,81,0.00,,,0.00,,2013-05-31 07:21:00,
2013-05-31 03:32:00,74.0,68.0,29.91,SSE,154,2.0,11.0,81,0.00,,,0.00,,2013-05-31 07:32:00,
2013-05-31 03:41:00,74.0,68.0,29.91,SSE,154,2.0,11.0,81,0.00,,,0.00,,2013-05-31 07:41:00,
2013-05-31 03:52:00,74.0,68.0,29.91,SSE,155,2.0,9.0,81,0.00,,,0.00,,2013-05-31 07:52:00,
2013-05-31 04:02:00,73.0,67.0,29.90,SE,139,2.0,8.0,82,0.00,,,0.00,,2013-05-31 08:02:00,
2013-05-31 04:11:00,73.0,67.0,29.90,SE,139,2.0,8.0,82,0.00,,,0.00,,2013-05-31 08:11:00,
2013-05-31 04:31:00,73.0,68.0,29.90,SSE,157,1.0,8.0,83,0.00,,,0.00,,2013-05-31 08:31:00,
2013-05-31 04:42:00,73.0,68.0,29.90,SSE,157,1.0,8.0,83,0.00,,,0.00,,2013-05-31 08:42:00,
2013-05-31 04:52:00,73.0,68.0,29.90,SSE,154,2.0,7.0,83,0.00,,,0.00,,2013-05-31 08:52:00,
2013-05-31 05:01:00,73.0,68.0,29.90,SSE,153,2.0,8.0,83,0.00,,,0.00,,2013-05-31 09:01:00,
2013-05-31 05:11:00,73.0,68.0,29.90,SSE,153,2.0,9.0,83,0.00,,,0.00,,2013-05-31 09:11:00,
2013-05-31 05:21:00,73.0,68.0,29.90,SSE,153,2.0,9.0,83,0.00,,,0.00,,2013-05-31 09:21:00,
2013-05-31 05:32:00,73.0,68.0,29.90,SSE,163,3.0,12.0,83,0.00,,,0.00,,2013-05-31 09:32:00,
2013-05-31 05:43:00,73.0,68.0,29.90,SSE,163,3.0,12.0,83,0.00,,,0.00,,2013-05-31 09:43:00,
2013-05-31 05:53:00,73.0,68.0,29.90,SE,146,2.0,9.0,84,0.00,,,0.00,,2013-05-31 09:53:00,
2013-05-31 06:02:00,72.0,67.0,29.90,South,172,2.0,7.0,85,0.00,,,0.00,,2013-05-31 10:02:00,
2013-05-31 06:12:00,72.0,67.0,29.92,SSW,198,0.0,3.0,85,0.00,,,0.00,,2013-05-31 10:12:00,
2013-05-31 06:22:00,72.0,67.0,29.92,SSW,198,0.0,3.0,85,0.00,,,0.00,,2013-05-31 10:22:00,
2013-05-31 06:33:00,69.0,65.0,29.92,SW,220,0.0,4.0,87,0.00,,,0.00,,2013-05-31 10:33:00,
2013-05-31 06:42:00,69.0,65.0,29.92,SW,220,0.0,4.0,87,0.00,,,0.00,,2013-05-31 10:42:00,
2013-05-31 06:52:00,68.0,65.0,29.92,WSW,248,0.0,1.0,89,0.00,,,0.00,,2013-05-31 10:52:00,
2013-05-31 07:02:00,67.0,65.0,29.93,West,268,0.0,5.0,92,0.00,,,0.00,,2013-05-31 11:02:00,
2013-05-31 07:11:00,67.0,65.0,29.93,West,268,0.0,5.0,92,0.00,,,0.00,,2013-05-31 11:11:00,
2013-05-31 07:22:00,65.0,63.0,29.94,West,277,1.0,4.0,94,0.00,,,0.00,,2013-05-31 11:22:00,
2013-05-31 07:32:00,64.0,63.0,29.96,West,281,0.0,3.0,96,0.03,,,0.03,,2013-05-31 11:32:00,
2013-05-31 07:42:00,64.0,63.0,29.96,West,281,0.0,3.0,96,0.03,,,0.03,,2013-05-31 11:42:00,
2013-05-31 07:52:00,64.0,63.0,29.96,West,281,0.0,3.0,96,0.04,,,0.04,,2013-05-31 11:52:00,
2013-05-31 08:01:00,63.0,62.0,29.96,West,281,0.0,0.0,97,0.07,,,0.07,,2013-05-31 12:01:00,
2013-05-31 08:11:00,63.0,62.0,29.96,West,281,0.0,0.0,97,0.07,,,0.07,,2013-05-31 12:11:00,
2013-05-31 08:21:00,63.0,62.0,29.97,West,281,0.0,1.0,97,0.10,,,0.10,,2013-05-31 12:21:00,
2013-05-31 08:31:00,63.0,62.0,29.96,West,281,0.0,0.0,97,0.13,,,0.16,,2013-05-31 12:31:00,
2013-05-31 08:41:00,63.0,62.0,29.96,West,281,0.0,0.0,97,0.13,,,0.16,,2013-05-31 12:41:00,
2013-05-31 08:52:00,63.0,62.0,29.96,West,281,0.0,3.0,98,0.17,,,0.21,,2013-05-31 12:52:00,
2013-05-31 09:01:00,63.0,62.0,29.96,West,281,0.0,0.0,98,0.19,,,0.26,,2013-05-31 13:01:00,
2013-05-31 09:11:00,63.0,62.0,29.96,West,281,0.0,0.0,98,0.19,,,0.26,,2013-05-31 13:11:00,
2013-05-31 09:21:00,63.0,62.0,29.96,SE,126,0.0,3.0,98,0.20,,,0.30,,2013-05-31 13:21:00,
2013-05-31 09:32:00,63.0,62.0,29.95,East,88,1.0,5.0,98,0.19,,,0.35,,2013-05-31 13:32:00,
2013-05-31 09:42:00,63.0,62.0,29.95,East,88,1.0,5.0,98,0.19,,,0.35,,2013-05-31 13:42:00,
2013-05-31 09:52:00,63.0,62.0,29.95,ESE,106,2.0,6.0,98,0.17,,,0.38,,2013-05-31 13:52:00,
2013-05-31 10:02:00,63.0,63.0,29.95,ESE,102,1.0,6.0,99,0.14,,,0.40,,2013-05-31 14:02:00,
2013-05-31 10:11:00,63.0,63.0,29.95,ESE,102,1.0,6.0,99,0.14,,,0.40,,2013-05-31 14:11:00,
2013-05-31 10:21:00,63.0,63.0,29.94,East,89,3.0,9.0,99,0.12,,,0.42,,2013-05-31 14:21:00,
2013-05-31 10:32:00,64.0,64.0,29.94,East,99,3.0,8.0,99,0.07,,,0.42,,2013-05-31 14:32:00,
2013-05-31 10:41:00,64.0,64.0,29.94,East,99,3.0,8.0,99,0.07,,,0.42,,2013-05-31 14:41:00,
2013-05-31 10:52:00,64.0,64.0,29.94,SE,128,1.0,5.0,99,0.04,,,0.42,,2013-05-31 14:52:00,
2013-05-31 11:01:00,65.0,65.0,29.94,East,101,1.0,9.0,99,0.02,,,0.42,,2013-05-31 15:01:00,
2013-05-31 11:11:00,66.0,66.0,29.94,SE,142,2.0,8.0,100,0.00,,,0.42,,2013-05-31 15:11:00,
2013-05-31 11:21:00,66.0,66.0,29.94,SE,142,2.0,8.0,100,0.00,,,0.42,,2013-05-31 15:21:00,
2013-05-31 11:33:00,67.0,67.0,29.93,SSE,152,2.0,7.0,99,0.00,,,0.42,,2013-05-31 15:33:00,
2013-05-31 11:43:00,67.0,67.0,29.93,SSE,152,2.0,7.0,99,0.00,,,0.42,,2013-05-31 15:43:00,
2013-05-31 11:53:00,68.0,68.0,29.93,SSE,168,0.0,6.0,100,0.00,,,0.42,,2013-05-31 15:53:00,
2013-05-31 12:03:00,68.0,68.0,29.93,South,181,0.0,4.0,100,0.00,,,0.42,,2013-05-31 16:03:00,
2013-05-31 12:12:00,69.0,69.0,29.93,South,177,0.0,3.0,99,0.00,,,0.42,,2013-05-31 16:12:00,
2013-05-31 12:22:00,69.0,69.0,29.93,South,177,0.0,3.0,99,0.00,,,0.42,,2013-05-31 16:22:00,
2013-05-31 12:33:00,69.0,69.0,29.94,SSE,167,1.0,6.0,99,0.00,,,0.42,,2013-05-31 16:33:00,
2013-05-31 12:42:00,69.0,69.0,29.94,SSE,167,1.0,6.0,99,0.00,,,0.42,,2013-05-31 16:42:00,
2013-05-31 12:52:00,69.0,68.0,29.94,SSE,164,2.0,6.0,98,0.00,,,0.42,,2013-05-31 16:52:00,
2013-05-31 13:02:00,69.0,68.0,29.94,South,182,1.0,8.0,98,0.18,,,0.60,,2013-05-31 17:02:00,
2013-05-31 13:12:00,69.0,68.0,29.94,South,182,1.0,8.0,98,0.18,,,0.60,,2013-05-31 17:12:00,
2013-05-31 13:22:00,69.0,68.0,29.94,SSE,161,1.0,7.0,98,0.42,,,0.84,,2013-05-31 17:22:00,
2013-05-31 13:32:00,69.0,68.0,29.94,SSE,165,1.0,11.0,98,0.46,,,0.88,,2013-05-31 17:32:00,
2013-05-31 13:42:00,69.0,68.0,29.94,SSE,165,1.0,11.0,98,0.46,,,0.88,,2013-05-31 17:42:00,
2013-05-31 13:52:00,69.0,69.0,29.93,South,183,1.0,10.0,99,0.46,,,0.88,,2013-05-31 17:52:00,
2013-05-31 14:01:00,69.0,69.0,29.93,SSE,156,0.0,4.0,99,0.28,,,0.88,,2013-05-31 18:01:00,
2013-05-31 14:11:00,70.0,70.0,29.92,South,182,1.0,8.0,99,0.04,,,0.88,,2013-05-31 18:11:00,
2013-05-31 14:22:00,70.0,70.0,29.92,South,182,1.0,8.0,99,0.04,,,0.88,,2013-05-31 18:22:00,
2013-05-31 14:31:00,70.0,69.0,29.92,South,182,2.0,9.0,98,0.00,,,0.88,,2013-05-31 18:31:00,
2013-05-31 14:42:00,70.0,69.0,29.92,South,182,2.0,9.0,98,0.00,,,0.88,,2013-05-31 18:42:00,
2013-05-31 14:52:00,71.0,70.0,29.92,South,179,1.0,7.0,97,0.00,,,0.88,,2013-05-31 18:52:00,
2013-05-31 15:02:00,72.0,70.0,29.91,SSE,168,1.0,11.0,93,0.00,,,0.88,,2013-05-31 19:02:00,
2013-05-31 15:11:00,72.0,70.0,29.91,SSE,168,1.0,11.0,93,0.00,,,0.88,,2013-05-31 19:11:00,
2013-05-31 15:22:00,72.0,70.0,29.91,SSE,167,1.0,5.0,92,0.00,,,0.88,,2013-05-31 19:22:00,
2013-05-31 15:32:00,72.0,70.0,29.91,SSE,162,2.0,14.0,92,0.00,,,0.88,,2013-05-31 19:32:00,
2013-05-31 15:42:00,73.0,70.0,29.90,SSW,199,1.0,6.0,91,0.00,,,0.88,,2013-05-31 19:42:00,
2013-05-31 15:52:00,73.0,70.0,29.90,SSW,199,1.0,6.0,91,0.00,,,0.88,,2013-05-31 19:52:00,
2013-05-31 16:01:00,73.0,70.0,29.90,SSE,166,2.0,6.0,89,0.00,,,0.88,,2013-05-31 20:01:00,
2013-05-31 16:11:00,73.0,70.0,29.90,SSE,166,2.0,6.0,89,0.00,,,0.88,,2013-05-31 20:11:00,
2013-05-31 16:22:00,73.0,70.0,29.89,South,188,1.0,8.0,89,0.00,,,0.88,,2013-05-31 20:22:00,
2013-05-31 16:31:00,75.0,71.0,29.89,South,170,1.0,8.0,88,0.00,,,0.88,,2013-05-31 20:31:00,
2013-05-31 16:41:00,75.0,71.0,29.89,South,170,1.0,8.0,88,0.00,,,0.88,,2013-05-31 20:41:00,
2013-05-31 16:52:00,75.0,70.0,29.89,South,185,2.0,8.0,84,0.00,,,0.88,,2013-05-31 20:52:00,
2013-05-31 17:01:00,75.0,71.0,29.88,SSW,195,0.0,6.0,86,0.00,,,0.88,,2013-05-31 21:01:00,
2013-05-31 17:11:00,75.0,71.0,29.88,SSW,195,0.0,6.0,86,0.00,,,0.88,,2013-05-31 21:11:00,
2013-05-31 17:22:00,75.0,71.0,29.88,South,173,1.0,5.0,86,0.00,,,0.88,,2013-05-31 21:22:00,
2013-05-31 17:32:00,75.0,71.0,29.87,SSE,160,2.0,9.0,87,0.00,,,0.88,,2013-05-31 21:32:00,
2013-05-31 17:42:00,75.0,71.0,29.87,SSE,163,2.0,9.0,87,0.00,,,0.88,,2013-05-31 21:42:00,
2013-05-31 17:54:00,75.0,71.0,29.87,SSE,163,2.0,9.0,87,0.00,,,0.88,,2013-05-31 21:54:00,
2013-05-31 18:02:00,74.0,70.0,29.87,SSE,167,3.0,10.0,87,0.00,,,0.88,,2013-05-31 22:02:00,
2013-05-31 18:12:00,75.0,71.0,29.87,SSE,159,2.0,9.0,86,0.00,,,0.88,,2013-05-31 22:12:00,
2013-05-31 18:22:00,75.0,71.0,29.87,SSE,159,2.0,9.0,86,0.00,,,0.88,,2013-05-31 22:22:00,
2013-05-31 18:33:00,75.0,71.0,29.87,SSE,158,1.0,8.0,86,0.00,,,0.88,,2013-05-31 22:33:00,
2013-05-31 18:42:00,75.0,70.0,29.87,South,177,0.0,6.0,85,0.00,,,0.88,,2013-05-31 22:42:00,
2013-05-31 18:53:00,75.0,70.0,29.87,South,177,0.0,6.0,85,0.00,,,0.88,,2013-05-31 22:53:00,
2013-05-31 19:02:00,75.0,70.0,29.87,SSE,156,1.0,10.0,85,0.00,,,0.88,,2013-05-31 23:02:00,
2013-05-31 19:12:00,75.0,71.0,29.87,SSE,160,0.0,5.0,86,0.00,,,0.88,,2013-05-31 23:12:00,
2013-05-31 19:21:00,75.0,71.0,29.87,SSE,160,0.0,5.0,86,0.00,,,0.88,,2013-05-31 23:21:00,
2013-05-31 19:32:00,75.0,70.0,29.87,SSE,163,1.0,7.0,85,0.00,,,0.88,,2013-05-31 23:32:00,
2013-05-31 19:42:00,75.0,71.0,29.86,SSE,148,0.0,5.0,86,0.00,,,0.88,,2013-05-31 23:42:00,
2013-05-31 19:52:00,75.0,71.0,29.86,SSE,148,0.0,5.0,86,0.00,,,0.88,,2013-05-31 23:52:00,
2013-05-31 20:01:00,75.0,71.0,29.86,SSE,156,3.0,8.0,86,0.00,,,0.88,,2013-06-01 00:01:00,
2013-05-31 20:11:00,75.0,71.0,29.86,SSE,157,1.0,5.0,88,0.00,,,0.88,,2013-06-01 00:11:00,
2013-05-31 20:22:00,75.0,71.0,29.86,SSE,157,1.0,5.0,88,0.00,,,0.88,,2013-06-01 00:22:00,
2013-05-31 20:32:00,74.0,71.0,29.86,SSE,166,1.0,7.0,89,0.00,,,0.88,,2013-06-01 00:32:00,
2013-05-31 20:42:00,74.0,71.0,29.86,South,172,0.0,5.0,89,0.00,,,0.88,,2013-06-01 00:42:00,
2013-05-31 20:52:00,74.0,71.0,29.86,South,172,0.0,5.0,89,0.00,,,0.88,,2013-06-01 00:52:00,
2013-05-31 21:01:00,74.0,71.0,29.86,SSE,155,2.0,11.0,89,0.00,,,0.88,,2013-06-01 01:01:00,
2013-05-31 21:11:00,74.0,71.0,29.85,SSE,147,1.0,8.0,89,0.00,,,0.88,,2013-06-01 01:11:00,
2013-05-31 21:21:00,74.0,71.0,29.85,SSE,147,1.0,8.0,89,0.00,,,0.88,,2013-06-01 01:21:00,
2013-05-31 21:32:00,73.0,70.0,29.84,SSE,160,2.0,6.0,90,0.00,,,0.88,,2013-06-01 01:32:00,
2013-05-31 21:42:00,73.0,70.0,29.84,SSE,162,2.0,8.0,91,0.00,,,0.88,,2013-06-01 01:42:00,
2013-05-31 21:52:00,73.0,70.0,29.84,SSE,162,2.0,8.0,91,0.00,,,0.88,,2013-06-01 01:52:00,
2013-05-31 22:01:00,73.0,70.0,29.85,SSE,161,1.0,6.0,91,0.00,,,0.88,,2013-06-01 02:01:00,
2013-05-31 22:11:00,73.0,71.0,29.85,SSE,153,2.0,5.0,92,0.00,,,0.88,,2013-06-01 02:11:00,
2013-05-31 22:21:00,73.0,71.0,29.85,SSE,153,2.0,5.0,92,0.00,,,0.88,,2013-06-01 02:21:00,
2013-05-31 22:32:00,73.0,71.0,29.86,SSE,163,1.0,7.0,92,0.00,,,0.88,,2013-06-01 02:32:00,
2013-05-31 22:42:00,72.0,70.0,29.85,SSE,159,1.0,6.0,93,0.00,,,0.88,,2013-06-01 02:42:00,
2013-05-31 22:52:00,72.0,70.0,29.85,SSE,159,1.0,6.0,93,0.00,,,0.88,,2013-06-01 02:52:00,
2013-05-31 23:01:00,72.0,70.0,29.86,SSE,166,2.0,7.0,93,0.00,,,0.88,,2013-06-01 03:01:00,
2013-05-31 23:11:00,72.0,70.0,29.86,SSE,153,2.0,9.0,93,0.00,,,0.88,,2013-06-01 03:11:00,
2013-05-31 23:21:00,72.0,70.0,29.86,SSE,153,2.0,9.0,93,0.00,,,0.88,,2013-06-01 03:21:00,
2013-05-31 23:33:00,72.0,70.0,29.86,SSE,152,2.0,6.0,93,0.00,,,0.88,,2013-06-01 03:33:00,
2013-05-31 23:43:00,72.0,70.0,29.86,SSE,158,1.0,5.0,93,0.00,,,0.88,,2013-06-01 03:43:00,
2013-05-31 23:53:00,72.0,70.0,29.86,SSE,158,1.0,5.0,93,0.00,,,0.88,,2013-06-01 03:53:00,